createdAt,value
2019-03-01T00:00:59.678Z,7.40
2019-03-01T00:03:32.226Z,7.30
2019-03-01T00:06:21.813Z,6.43
2019-03-01T00:09:21.052Z,6.97
2019-03-01T00:11:59.789Z,7.57
2019-03-01T00:15:04.200Z,8.10
2019-03-01T00:18:01.020Z,7.00
2019-03-01T00:20:50.809Z,6.63
2019-03-01T00:23:48.660Z,6.87
2019-03-01T00:26:56.766Z,7.03
2019-03-01T00:29:55.673Z,6.23
2019-03-01T00:33:01.994Z,7.23
2019-03-01T00:36:11.584Z,7.70
2019-03-01T00:38:55.035Z,6.63
2019-03-01T00:42:15.949Z,7.60
2019-03-01T00:44:48.917Z,7.43
2019-03-01T00:47:19.918Z,7.93
2019-03-01T00:49:51.315Z,7.77
2019-03-01T00:52:23.338Z,7.47
2019-03-01T00:54:54.363Z,8.13
2019-03-01T00:57:25.420Z,8.33
2019-03-01T00:59:56.413Z,6.87
2019-03-01T01:02:27.833Z,8.47
2019-03-01T01:05:00.295Z,7.93
2019-03-01T01:07:31.317Z,7.47
2019-03-01T01:10:02.409Z,8.00
2019-03-01T01:12:34.393Z,8.30
2019-03-01T01:15:05.965Z,8.00
2019-03-01T01:17:38.050Z,8.13
2019-03-01T01:20:09.408Z,7.93
2019-03-01T01:22:40.312Z,7.10
2019-03-01T01:25:11.603Z,8.30
2019-03-01T01:27:42.630Z,8.10
2019-03-01T01:30:14.255Z,6.87
2019-03-01T01:32:45.269Z,7.07
2019-03-01T01:35:16.245Z,7.53
2019-03-01T01:37:47.314Z,7.27
2019-03-01T01:40:18.264Z,7.83
2019-03-01T01:42:49.210Z,7.97
2019-03-01T01:45:20.704Z,7.63
2019-03-01T01:47:52.330Z,8.40
2019-03-01T01:50:23.341Z,8.57
2019-03-01T01:52:54.365Z,8.30
2019-03-01T01:55:25.790Z,9.30
2019-03-01T01:57:57.007Z,9.00
2019-03-01T02:00:28.373Z,9.17
2019-03-01T02:02:59.454Z,9.10
2019-03-01T02:05:30.427Z,9.43
2019-03-01T02:08:01.811Z,9.93
2019-03-01T02:10:33.093Z,10.70
2019-03-01T02:13:04.801Z,10.10
2019-03-01T02:15:35.841Z,9.43
2019-03-01T02:18:09.562Z,10.73
2019-03-01T02:20:40.611Z,10.73
2019-03-01T02:23:11.708Z,10.30
2019-03-01T02:25:43.077Z,10.93
2019-03-01T02:28:14.093Z,10.67
2019-03-01T02:30:45.599Z,11.07
2019-03-01T02:33:16.586Z,10.33
2019-03-01T02:35:47.606Z,12.27
2019-03-01T02:38:18.967Z,10.40
2019-03-01T02:40:50.074Z,10.80
2019-03-01T02:43:21.224Z,12.03
2019-03-01T02:45:52.603Z,11.83
2019-03-01T02:48:23.645Z,11.33
2019-03-01T02:50:54.633Z,12.00
2019-03-01T02:53:26.052Z,11.97
2019-03-01T02:55:56.991Z,11.40
2019-03-01T02:58:28.463Z,12.93
2019-03-01T03:00:59.823Z,12.20
2019-03-01T03:03:31.439Z,13.03
2019-03-01T03:06:33.510Z,14.07
2019-03-01T03:09:07.134Z,16.73
2019-03-01T03:11:39.485Z,20.77
2019-03-01T03:14:11.752Z,21.17
2019-03-01T03:16:42.820Z,22.27
2019-03-01T03:19:14.214Z,23.80
2019-03-01T03:21:45.259Z,22.90
2019-03-01T03:24:16.589Z,26.17
2019-03-01T03:26:48.672Z,25.77
2019-03-01T03:29:20.256Z,28.33
2019-03-01T03:31:51.388Z,31.47
2019-03-01T03:34:33.997Z,32.70
2019-03-01T03:37:05.064Z,30.47
2019-03-01T03:39:37.662Z,34.17
2019-03-01T03:42:09.347Z,36.13
2019-03-01T03:44:40.260Z,36.57
2019-03-01T03:47:12.237Z,37.17
2019-03-01T03:49:43.140Z,39.63
2019-03-01T03:52:14.054Z,42.00
2019-03-01T03:54:45.356Z,44.07
2019-03-01T03:57:16.511Z,47.53
2019-03-01T03:59:47.425Z,46.63
2019-03-01T04:02:20.056Z,49.73
2019-03-01T04:04:51.328Z,50.40
2019-03-01T04:07:22.363Z,51.27
2019-03-01T04:09:54.926Z,53.00
2019-03-01T04:12:25.863Z,53.50
2019-03-01T04:14:58.222Z,53.53
2019-03-01T04:17:29.135Z,52.57
2019-03-01T04:20:00.148Z,52.73
2019-03-01T04:22:31.383Z,53.57
2019-03-01T04:25:02.286Z,54.17
2019-03-01T04:27:33.217Z,54.47
2019-03-01T04:30:04.899Z,56.17
2019-03-01T04:32:38.911Z,57.00
2019-03-01T04:35:10.342Z,53.83
2019-03-01T04:37:41.624Z,56.30
2019-03-01T04:40:13.490Z,56.47
2019-03-01T04:42:44.478Z,59.87
2019-03-01T04:45:15.757Z,66.93
2019-03-01T04:47:46.676Z,80.33
2019-03-01T04:50:18.141Z,79.13
2019-03-01T04:52:49.557Z,84.57
2019-03-01T04:55:22.949Z,82.53
2019-03-01T04:57:53.957Z,86.57
2019-03-01T05:00:25.007Z,85.17
2019-03-01T05:02:56.215Z,87.27
2019-03-01T05:05:27.133Z,87.20
2019-03-01T05:07:58.336Z,86.97
2019-03-01T05:10:29.638Z,84.27
2019-03-01T05:13:00.578Z,87.50
2019-03-01T05:15:31.468Z,86.57
2019-03-01T05:18:02.383Z,83.13
2019-03-01T05:20:33.305Z,82.43
2019-03-01T05:23:04.234Z,79.97
2019-03-01T05:25:35.257Z,72.60
2019-03-01T05:28:06.295Z,71.63
2019-03-01T05:30:37.663Z,65.90
2019-03-01T05:33:08.581Z,62.07
2019-03-01T05:35:39.564Z,57.83
2019-03-01T05:38:10.886Z,56.73
2019-03-01T05:40:47.258Z,52.90
2019-03-01T05:43:18.603Z,52.63
2019-03-01T05:45:49.545Z,52.53
2019-03-01T05:48:20.523Z,53.60
2019-03-01T05:50:51.444Z,48.07
2019-03-01T05:53:22.398Z,46.40
2019-03-01T05:55:59.720Z,41.43
2019-03-01T05:58:55.461Z,41.00
2019-03-01T06:04:38.428Z,35.87
2019-03-01T06:07:45.822Z,35.03
2019-03-01T06:10:45.402Z,36.10
2019-03-01T06:13:49.253Z,36.47
2019-03-01T06:16:42.867Z,34.27
2019-03-01T06:19:38.652Z,35.63
2019-03-01T06:22:50.992Z,37.77
2019-03-01T06:25:52.053Z,37.60
2019-03-01T06:28:54.520Z,35.80
2019-03-01T06:32:02.740Z,36.60
2019-03-01T06:34:58.225Z,36.17
2019-03-01T06:38:31.842Z,36.57
2019-03-01T06:41:33.728Z,37.17
2019-03-01T06:44:26.391Z,36.87
2019-03-01T06:47:31.980Z,37.07
2019-03-01T06:50:22.941Z,36.83
2019-03-01T06:52:57.521Z,35.90
2019-03-01T06:56:06.908Z,36.57
2019-03-01T06:58:46.797Z,34.67
2019-03-01T07:01:29.972Z,35.47
2019-03-01T07:04:15.583Z,34.90
2019-03-01T07:06:46.534Z,34.00
2019-03-01T07:09:32.252Z,34.83
2019-03-01T07:12:16.881Z,36.40
2019-03-01T07:14:59.895Z,34.80
2019-03-01T07:17:31.254Z,34.60
2019-03-01T07:20:09.710Z,34.33
2019-03-01T07:22:40.667Z,36.90
2019-03-01T07:25:19.483Z,35.17
2019-03-01T07:27:59.822Z,35.00
2019-03-01T07:30:30.718Z,35.17
2019-03-01T07:33:05.341Z,34.47
2019-03-01T07:38:37.864Z,31.97
2019-03-01T07:41:08.950Z,33.00
2019-03-01T07:43:40.197Z,32.87
2019-03-01T07:46:11.234Z,31.57
2019-03-01T07:48:50.655Z,32.10
2019-03-01T07:51:21.648Z,31.60
2019-03-01T07:53:53.049Z,31.10
2019-03-01T07:56:25.009Z,30.63
2019-03-01T07:58:59.989Z,31.33
2019-03-01T08:01:40.127Z,29.17
2019-03-01T08:04:11.180Z,32.40
2019-03-01T08:13:32.546Z,28.50
2019-03-01T08:37:31.017Z,29.37
2019-03-01T08:40:02.074Z,27.97
2019-03-01T08:42:37.421Z,28.20
2019-03-01T08:45:12.231Z,27.10
2019-03-01T08:47:43.259Z,27.67
2019-03-01T08:50:23.433Z,28.40
2019-03-01T08:52:59.195Z,27.13
2019-03-01T08:55:31.864Z,26.33
2019-03-01T09:01:04.070Z,26.33
2019-03-01T09:03:50.596Z,25.17
2019-03-01T09:06:21.608Z,23.03
2019-03-01T09:09:04.016Z,23.27
2019-03-01T09:11:51.465Z,22.53
2019-03-01T09:14:22.687Z,19.73
2019-03-01T09:16:55.464Z,21.00
2019-03-01T09:19:27.277Z,20.17
2019-03-01T09:21:58.723Z,21.13
2019-03-01T09:24:57.191Z,19.00
2019-03-01T09:27:30.246Z,16.87
2019-03-01T09:30:03.578Z,19.17
2019-03-01T09:32:37.320Z,17.87
2019-03-01T09:35:43.989Z,16.43
2019-03-01T09:44:16.486Z,19.67
2019-03-01T09:46:58.503Z,18.90
2019-03-01T09:49:28.079Z,20.37
2019-03-01T09:52:06.974Z,20.00
2019-03-01T09:54:50.839Z,19.00
2019-03-01T09:57:21.745Z,19.33
2019-03-01T09:59:52.677Z,19.90
2019-03-01T10:02:30.497Z,19.93
2019-03-01T10:05:11.820Z,18.60
2019-03-01T10:07:42.919Z,17.87
2019-03-01T10:10:14.537Z,17.30
2019-03-01T10:16:12.657Z,16.80
2019-03-01T10:18:59.591Z,17.63
2019-03-01T10:21:30.510Z,17.67
2019-03-01T10:24:02.581Z,18.60
2019-03-01T10:26:41.147Z,18.33
2019-03-01T10:29:12.061Z,19.87
2019-03-01T10:31:43.149Z,19.57
2019-03-01T10:34:21.273Z,21.37
2019-03-01T10:36:55.997Z,23.00
2019-03-01T10:39:26.913Z,20.63
2019-03-01T10:42:09.307Z,22.30
2019-03-01T10:44:39.248Z,22.67
2019-03-01T10:47:11.127Z,22.60
2019-03-01T10:52:40.723Z,20.23
2019-03-01T10:55:30.147Z,19.60
2019-03-01T11:01:00.103Z,18.83
2019-03-01T11:03:31.112Z,18.20
2019-03-01T11:06:14.461Z,17.23
2019-03-01T11:08:46.173Z,16.23
2019-03-01T11:11:44.796Z,16.83
2019-03-01T11:14:25.830Z,16.47
2019-03-01T11:17:03.124Z,15.57
2019-03-01T11:19:34.118Z,16.07
2019-03-01T11:22:27.369Z,17.97
2019-03-01T11:25:06.896Z,19.07
2019-03-01T11:27:37.875Z,17.57
2019-03-01T11:30:16.193Z,18.43
2019-03-01T11:32:47.209Z,17.73
2019-03-01T11:35:24.488Z,19.63
2019-03-01T11:41:00.036Z,20.83
2019-03-01T11:43:30.956Z,19.17
2019-03-01T11:46:10.384Z,21.40
2019-03-01T11:49:01.308Z,20.50
2019-03-01T11:51:34.084Z,20.93
2019-03-01T11:57:02.031Z,18.70
2019-03-01T11:59:32.957Z,17.97
2019-03-01T12:02:04.026Z,18.27
2019-03-01T12:07:32.331Z,16.43
2019-03-01T12:10:03.578Z,16.50
2019-03-01T12:12:35.866Z,18.57
2019-03-01T12:15:41.394Z,16.80
2019-03-01T12:18:23.225Z,16.47
2019-03-01T12:21:03.189Z,16.60
2019-03-01T12:23:34.177Z,16.10
2019-03-01T12:26:18.701Z,16.60
2019-03-01T13:15:00.895Z,17.87
2019-03-01T13:17:37.226Z,17.77
2019-03-01T13:20:15.158Z,18.20
2019-03-01T13:22:48.073Z,18.23
2019-03-01T13:28:43.913Z,18.23
2019-03-01T13:31:14.441Z,17.17
2019-03-01T13:33:48.158Z,19.00
2019-03-01T13:36:19.169Z,20.50
2019-03-01T13:39:01.714Z,19.53
2019-03-01T13:41:51.619Z,19.73
2019-03-01T13:44:43.991Z,19.97
2019-03-01T13:47:15.278Z,19.13
2019-03-01T13:49:46.222Z,17.97
2019-03-01T13:52:17.668Z,17.73
2019-03-01T13:54:56.787Z,16.60
2019-03-01T13:57:36.379Z,15.70
2019-03-01T14:00:14.870Z,14.73
2019-03-01T14:02:47.033Z,13.33
2019-03-01T14:05:26.524Z,12.93
2019-03-01T14:08:09.074Z,12.20
2019-03-01T14:10:41.890Z,10.23
2019-03-01T14:13:14.528Z,9.33
2019-03-01T14:15:45.006Z,8.73
2019-03-01T14:18:17.008Z,8.43
2019-03-01T14:20:48.308Z,7.87
2019-03-01T14:23:29.036Z,8.20
2019-03-01T14:26:07.080Z,8.00
2019-03-01T14:28:40.946Z,7.93
2019-03-01T14:31:12.181Z,7.00
2019-03-01T14:33:53.067Z,7.10
2019-03-01T14:36:24.462Z,7.10
2019-03-01T14:38:55.371Z,7.50
2019-03-01T14:41:26.302Z,7.53
2019-03-01T14:44:07.671Z,7.03
2019-03-01T14:46:38.917Z,6.67
2019-03-01T14:49:13.450Z,6.77
2019-03-01T14:51:52.757Z,7.13
2019-03-01T14:54:23.759Z,5.77
2019-03-01T14:57:22.095Z,7.07
2019-03-01T15:03:18.959Z,6.77
2019-03-01T15:05:50.821Z,6.73
2019-03-01T15:08:22.161Z,6.60
2019-03-01T15:10:53.167Z,6.40
2019-03-01T15:13:24.853Z,5.90
2019-03-01T15:15:55.916Z,6.17
2019-03-01T15:18:28.985Z,5.20
2019-03-01T15:21:02.547Z,5.00
2019-03-01T15:23:33.044Z,4.50
2019-03-01T15:26:16.195Z,4.60
2019-03-01T15:28:56.155Z,4.77
2019-03-01T15:31:37.757Z,4.87
2019-03-01T15:34:08.666Z,4.60
2019-03-01T15:36:39.589Z,5.27
2019-03-01T15:39:22.192Z,4.47
2019-03-01T15:42:14.358Z,5.10
2019-03-01T15:45:01.618Z,4.70
2019-03-01T15:47:33.570Z,5.10
2019-03-01T15:50:16.867Z,4.50
2019-03-01T15:53:08.190Z,4.17
2019-03-01T15:55:39.465Z,4.40
2019-03-01T15:58:10.402Z,4.47
2019-03-01T16:00:41.513Z,3.43
2019-03-01T16:06:34.100Z,2.97
2019-03-01T16:09:08.744Z,3.00
2019-03-01T16:11:53.215Z,3.33
2019-03-01T16:14:25.075Z,3.90
2019-03-01T16:16:57.367Z,3.67
2019-03-01T16:19:28.675Z,2.70
2019-03-01T16:21:59.720Z,2.43
2019-03-01T16:24:30.761Z,2.47
2019-03-01T16:27:01.791Z,2.60
2019-03-01T16:29:32.868Z,2.73
2019-03-01T16:32:04.676Z,2.67
2019-03-01T16:34:37.643Z,2.17
2019-03-01T16:37:09.752Z,2.10
2019-03-01T16:39:40.827Z,2.47
2019-03-01T16:42:14.640Z,2.03
2019-03-01T16:44:47.942Z,1.90
2019-03-01T16:47:19.362Z,2.03
2019-03-01T16:49:50.400Z,2.20
2019-03-01T16:52:21.450Z,2.40
2019-03-01T16:54:54.817Z,2.43
2019-03-01T16:57:26.050Z,2.70
2019-03-01T16:59:57.100Z,2.63
2019-03-01T17:02:28.455Z,2.27
2019-03-01T17:05:03.699Z,2.90
2019-03-01T17:07:34.293Z,2.93
2019-03-01T17:10:06.479Z,2.93
2019-03-01T17:12:37.685Z,2.80
2019-03-01T17:15:13.940Z,2.90
2019-03-01T17:17:45.546Z,4.27
2019-03-01T17:20:16.923Z,5.23
2019-03-01T17:22:47.965Z,4.27
2019-03-01T17:25:19.582Z,6.60
2019-03-01T17:27:50.631Z,7.30
2019-03-01T17:30:22.106Z,5.13
2019-03-01T17:32:53.131Z,5.70
2019-03-01T17:35:24.204Z,4.03
2019-03-01T17:37:55.329Z,3.63
2019-03-01T17:40:29.262Z,4.10
2019-03-01T17:42:59.052Z,3.63
2019-03-01T17:45:30.013Z,4.77
2019-03-01T17:48:01.094Z,4.30
2019-03-01T17:50:32.067Z,4.23
2019-03-01T17:53:06.254Z,3.87
2019-03-01T17:55:38.640Z,4.17
2019-03-01T17:58:10.385Z,4.37
2019-03-01T18:00:41.823Z,4.40
2019-03-01T18:03:12.780Z,4.73
2019-03-01T18:05:43.897Z,4.77
2019-03-01T18:08:14.955Z,5.60
2019-03-01T18:10:45.985Z,5.03
2019-03-01T18:13:17.018Z,7.20
2019-03-01T18:15:48.526Z,6.07
2019-03-01T18:18:20.771Z,5.40
2019-03-01T18:20:52.112Z,5.47
2019-03-01T18:23:23.943Z,4.90
2019-03-01T18:25:54.852Z,4.93
2019-03-01T18:28:28.311Z,5.57
2019-03-01T18:30:58.896Z,4.87
2019-03-01T18:33:29.884Z,4.83
2019-03-01T18:36:01.235Z,5.20
2019-03-01T18:38:32.475Z,5.73
2019-03-01T18:41:03.530Z,6.20
2019-03-01T18:43:34.498Z,5.90
2019-03-01T18:46:05.892Z,6.13
2019-03-01T18:48:36.874Z,5.80
2019-03-01T18:51:08.272Z,5.90
2019-03-01T18:53:39.298Z,5.63
2019-03-01T18:56:10.841Z,5.43
2019-03-01T18:58:41.872Z,5.13
2019-03-01T19:01:13.352Z,5.23
2019-03-01T19:03:44.781Z,5.57
2019-03-01T19:06:16.224Z,5.67
2019-03-01T19:08:48.156Z,6.10
2019-03-01T19:11:19.497Z,5.03
2019-03-01T19:13:50.507Z,5.80
2019-03-01T19:16:21.585Z,5.77
2019-03-01T19:18:54.555Z,5.87
2019-03-01T19:21:25.747Z,6.63
2019-03-01T19:23:56.812Z,6.27
2019-03-01T19:26:28.668Z,6.93
2019-03-01T19:29:02.677Z,7.17
2019-03-01T19:31:33.206Z,6.77
2019-03-01T19:34:04.518Z,7.53
2019-03-01T19:36:38.945Z,7.50
2019-03-01T19:39:22.422Z,8.07
2019-03-01T19:41:54.621Z,7.63
2019-03-01T19:44:29.078Z,7.40
2019-03-01T19:46:59.517Z,7.90
2019-03-01T19:49:30.545Z,8.63
2019-03-01T19:52:01.566Z,8.67
2019-03-01T19:54:35.720Z,7.50
2019-03-01T19:57:05.306Z,8.00
2019-03-01T19:59:36.651Z,8.07
2019-03-01T20:02:07.694Z,8.47
2019-03-01T20:04:39.882Z,8.10
2019-03-01T20:07:10.962Z,9.00
2019-03-01T20:09:41.955Z,9.13
2019-03-01T20:12:13.045Z,10.40
2019-03-01T20:14:44.056Z,8.60
2019-03-01T20:17:15.868Z,9.30
2019-03-01T20:19:46.876Z,9.77
2019-03-01T20:22:18.604Z,10.37
2019-03-01T20:24:50.515Z,8.80
2019-03-01T20:27:21.888Z,8.33
2019-03-01T20:29:53.448Z,9.37
2019-03-01T20:32:24.681Z,10.37
2019-03-01T20:34:56.712Z,11.30
2019-03-01T20:37:28.617Z,9.07
2019-03-01T20:39:59.743Z,10.07
2019-03-01T20:42:30.807Z,10.60
2019-03-01T20:45:03.650Z,11.43
2019-03-01T20:47:35.425Z,10.80
2019-03-01T20:50:07.214Z,10.30
2019-03-01T20:52:39.132Z,11.50
2019-03-01T20:55:10.914Z,10.77
2019-03-01T20:57:42.357Z,11.37
2019-03-01T21:00:15.316Z,10.87
2019-03-01T21:02:50.091Z,10.60
2019-03-01T21:05:19.565Z,10.87
2019-03-01T21:07:53.750Z,10.60
2019-03-01T21:10:24.075Z,11.00
2019-03-01T21:12:55.123Z,9.93
2019-03-01T21:15:26.170Z,10.37
2019-03-01T21:17:58.702Z,10.60
2019-03-01T21:20:30.214Z,11.13
2019-03-01T21:23:01.626Z,11.60
2019-03-01T21:25:35.941Z,12.43
2019-03-01T21:28:05.730Z,11.23
2019-03-01T21:30:36.886Z,11.63
2019-03-01T21:33:08.375Z,13.87
2019-03-01T21:35:39.409Z,12.87
2019-03-01T21:38:10.740Z,12.23
2019-03-01T21:40:43.754Z,12.00
2019-03-01T21:43:26.171Z,13.03
2019-03-01T21:45:58.860Z,12.03
2019-03-01T21:48:30.895Z,12.00
2019-03-01T21:51:02.023Z,12.27
2019-03-01T21:53:36.497Z,12.80
2019-03-01T21:56:08.529Z,11.57
2019-03-01T21:58:41.961Z,12.70
2019-03-01T22:01:11.829Z,13.40
2019-03-01T22:03:43.183Z,11.63
2019-03-01T22:06:14.204Z,12.17
2019-03-01T22:08:48.716Z,11.80
2019-03-01T22:11:18.252Z,12.97
2019-03-01T22:13:49.711Z,12.37
2019-03-01T22:16:20.741Z,11.50
2019-03-01T22:18:51.776Z,12.57
2019-03-01T22:21:23.541Z,11.73
2019-03-01T22:23:55.013Z,13.30
2019-03-01T22:26:26.438Z,12.63
2019-03-01T22:28:57.444Z,12.17
2019-03-01T22:31:28.429Z,13.00
2019-03-01T22:33:59.451Z,12.00
2019-03-01T22:36:30.519Z,13.30
2019-03-01T22:39:02.347Z,14.20
2019-03-01T22:41:35.597Z,12.77
2019-03-01T22:44:08.314Z,14.17
2019-03-01T22:46:39.273Z,14.07
2019-03-01T22:49:10.292Z,13.50
2019-03-01T22:51:41.383Z,14.67
2019-03-01T22:54:14.729Z,14.67
2019-03-01T22:56:48.500Z,13.70
2019-03-01T22:59:18.724Z,14.03
2019-03-01T23:01:52.600Z,14.33
2019-03-01T23:04:26.665Z,13.57
2019-03-01T23:06:56.308Z,14.60
2019-03-01T23:09:27.627Z,15.03
2019-03-01T23:12:00.240Z,15.07
2019-03-01T23:14:31.990Z,15.50
2019-03-01T23:17:03.043Z,15.60
2019-03-01T23:19:34.045Z,14.67
2019-03-01T23:22:17.310Z,14.97
2019-03-01T23:24:49.460Z,16.77
2019-03-01T23:27:20.712Z,15.33
2019-03-01T23:29:54.347Z,15.50
2019-03-01T23:32:24.481Z,15.13
2019-03-01T23:34:55.548Z,16.37
2019-03-01T23:37:26.496Z,15.23
2019-03-01T23:40:01.098Z,15.50
2019-03-01T23:42:30.231Z,15.77
2019-03-01T23:45:01.216Z,15.13
2019-03-01T23:47:34.744Z,15.33
2019-03-01T23:50:05.934Z,16.43
2019-03-01T23:52:36.933Z,14.90
2019-03-01T23:55:08.361Z,15.37
2019-03-01T23:57:41.081Z,15.10
